Time;durP1;ratioP1;P1;durP2;ratioP2;P2;SDS_P1;SDS_P2;PMS_P1;PMS_P2;Temp;Humidity;BMP_temperature;BMP_pressure;BME280_temperature;BME280_humidity;BME280_pressure;Samples;Min_cycle;Max_cycle;Signal;HPM_P1;HPM_P2
2022/09/03 00:02:49;;;;;;;1.45;0.90;;;18.60;92.90;;;;;;20643581;28;20073;-38
2022/09/03 00:12:55;;;;;;;0.98;0.30;;;18.40;93.70;;;;;;20647441;28;20061;-38
2022/09/03 00:23:00;;;;;;;0.70;0.30;;;18.30;93.50;;;;;;20632629;28;20085;-38
2022/09/03 00:33:12;;;;;;;1.17;0.45;;;18.10;93.70;;;;;;20645617;28;20161;-38
2022/09/03 00:43:45;;;;;;;0.70;0.30;;;18.00;94.10;;;;;;20625451;28;21914;-39
2022/09/03 00:54:04;;;;;;;1.27;0.70;;;18.00;94.30;;;;;;20637831;28;20077;-38
2022/09/03 01:04:24;;;;;;;1.15;0.50;;;17.80;94.30;;;;;;20640767;28;20557;-39
2022/09/03 01:14:45;;;;;;;3.45;0.77;;;17.80;94.50;;;;;;20638316;28;22024;-38
2022/09/03 01:25:16;;;;;;;1.88;0.70;;;17.90;94.20;;;;;;20635519;28;20073;-38
2022/09/03 01:35:25;;;;;;;1.00;0.40;;;17.90;94.20;;;;;;20625984;28;20188;-38
2022/09/03 01:45:42;;;;;;;1.10;0.57;;;17.90;94.10;;;;;;20635949;28;21863;-38
2022/09/03 01:55:59;;;;;;;2.03;0.80;;;17.90;94.40;;;;;;20633865;28;20093;-38
2022/09/03 02:06:00;;;;;;;1.13;0.50;;;18.00;94.40;;;;;;20650736;28;20648;-38
2022/09/03 02:16:14;;;;;;;0.88;0.52;;;17.90;94.40;;;;;;20654020;28;20066;-38
2022/09/03 02:26:20;;;;;;;0.98;0.40;;;17.90;94.60;;;;;;20658942;28;20892;-38
2022/09/03 02:36:30;;;;;;;0.73;0.38;;;17.90;94.50;;;;;;20638507;28;20869;-38
2022/09/03 02:46:47;;;;;;;0.65;0.28;;;17.90;94.80;;;;;;20652366;28;20652;-38
2022/09/03 02:56:48;;;;;;;1.42;0.60;;;17.70;94.80;;;;;;20654561;28;20061;-38
2022/09/03 03:06:49;;;;;;;0.63;0.30;;;17.50;95.00;;;;;;20649253;28;20088;-38
2022/09/03 03:16:50;;;;;;;0.90;0.40;;;17.40;95.40;;;;;;20642791;28;20126;-38
2022/09/03 03:26:56;;;;;;;1.20;0.60;;;17.20;95.60;;;;;;20652359;28;20159;-38
2022/09/03 03:36:58;;;;;;;3.15;0.40;;;17.00;95.90;;;;;;20646325;28;20446;-38
2022/09/03 03:46:59;;;;;;;1.00;0.50;;;16.90;96.30;;;;;;20639942;28;20081;-38
2022/09/03 03:57:00;;;;;;;0.95;0.50;;;16.70;96.30;;;;;;20620487;28;20035;-38
2022/09/03 04:07:01;;;;;;;1.05;0.40;;;16.70;96.50;;;;;;20635021;28;20061;-38
2022/09/03 04:17:03;;;;;;;0.88;0.47;;;16.60;96.80;;;;;;20631239;28;20034;-38
2022/09/03 04:27:04;;;;;;;1.27;0.57;;;16.60;97.10;;;;;;20628848;28;20069;-38
2022/09/03 04:37:05;;;;;;;1.70;0.40;;;16.50;97.30;;;;;;20627783;28;21730;-38
2022/09/03 04:47:06;;;;;;;1.02;0.50;;;16.50;97.30;;;;;;20650844;28;20042;-38
2022/09/03 04:57:07;;;;;;;0.80;0.30;;;16.40;97.40;;;;;;20639044;28;20738;-38
2022/09/03 05:07:08;;;;;;;1.40;0.63;;;16.50;97.70;;;;;;20646709;28;20046;-38
2022/09/03 05:17:09;;;;;;;1.08;0.45;;;16.40;97.80;;;;;;20639799;28;20066;-38
2022/09/03 05:27:10;;;;;;;1.15;0.40;;;16.30;97.90;;;;;;20641872;28;20049;-38
2022/09/03 05:37:11;;;;;;;2.50;0.52;;;16.30;98.00;;;;;;20676914;28;20042;-38
2022/09/03 05:47:12;;;;;;;0.80;0.50;;;16.20;98.40;;;;;;20658635;28;20054;-38
2022/09/03 05:57:13;;;;;;;4.03;0.70;;;16.30;98.90;;;;;;20671497;28;20371;-38
2022/09/03 06:07:15;;;;;;;1.83;0.50;;;16.30;98.60;;;;;;20676055;28;20533;-38
2022/09/03 06:17:15;;;;;;;0.57;0.30;;;16.50;98.20;;;;;;20671054;28;20034;-39
2022/09/03 06:27:16;;;;;;;0.73;0.40;;;16.50;98.30;;;;;;20677516;28;20053;-39
2022/09/03 06:37:18;;;;;;;0.95;0.55;;;16.90;97.80;;;;;;20672822;28;20068;-38
2022/09/03 06:47:19;;;;;;;1.30;0.47;;;17.10;97.90;;;;;;20679838;28;20050;-39
2022/09/03 06:57:20;;;;;;;3.72;1.40;;;17.30;98.00;;;;;;20664318;28;20041;-38
2022/09/03 07:07:21;;;;;;;0.68;0.40;;;17.70;97.50;;;;;;20652151;28;20050;-38
2022/09/03 07:17:22;;;;;;;0.80;0.32;;;18.00;96.10;;;;;;20652134;28;20037;-38
2022/09/03 07:27:23;;;;;;;2.13;0.30;;;18.30;96.50;;;;;;20673593;28;20064;-38
2022/09/03 07:37:24;;;;;;;1.67;0.57;;;18.60;96.30;;;;;;20668331;28;20045;-38
2022/09/03 07:47:25;;;;;;;0.80;0.20;;;18.80;96.10;;;;;;20683756;28;20057;-38
2022/09/03 07:57:26;;;;;;;0.60;0.30;;;19.10;95.70;;;;;;20671727;28;20166;-38
2022/09/03 08:07:30;;;;;;;0.88;0.40;;;19.50;95.60;;;;;;20674048;28;20394;-38
2022/09/03 08:17:32;;;;;;;0.38;0.28;;;19.90;94.80;;;;;;20653446;28;20057;-38
2022/09/03 08:27:34;;;;;;;0.65;0.20;;;20.30;95.20;;;;;;20659010;28;20088;-38
2022/09/03 08:37:35;;;;;;;2.03;0.40;;;20.80;93.80;;;;;;20667289;28;20045;-39
2022/09/03 08:48:04;;;;;;;1.75;0.40;;;21.20;93.50;;;;;;20658721;28;20050;-38
2022/09/03 08:58:08;;;;;;;0.57;0.35;;;21.60;93.50;;;;;;20649864;28;20034;-39
2022/09/03 09:08:19;;;;;;;0.80;0.40;;;22.10;92.20;;;;;;20656871;28;20139;-38
2022/09/03 09:18:35;;;;;;;1.00;0.38;;;22.50;92.80;;;;;;20666322;28;21665;-38
2022/09/03 09:28:37;;;;;;;0.60;0.20;;;23.00;92.30;;;;;;20661017;28;21676;-39
2022/09/03 09:38:39;;;;;;;1.95;0.50;;;23.40;92.20;;;;;;20664711;28;20108;-39
2022/09/03 09:48:51;;;;;;;1.27;0.52;;;23.70;91.30;;;;;;20644030;28;20124;-39
2022/09/03 09:59:07;;;;;;;1.35;0.65;;;23.80;91.80;;;;;;20617660;28;20074;-39
2022/09/03 10:09:14;;;;;;;0.38;0.20;;;24.20;90.70;;;;;;20658119;28;20058;-39
2022/09/03 10:19:18;;;;;;;1.10;0.47;;;24.60;90.10;;;;;;20648432;28;21296;-39
2022/09/03 10:29:22;;;;;;;2.63;0.75;;;24.90;89.90;;;;;;20657309;28;20042;-39
2022/09/03 10:39:57;;;;;;;0.65;0.50;;;25.20;88.20;;;;;;20647576;28;20081;-39
2022/09/03 10:50:17;;;;;;;1.85;0.75;;;25.70;87.00;;;;;;20616876;28;21851;-39
2022/09/03 11:00:19;;;;;;;1.05;0.47;;;25.80;86.40;;;;;;20656026;28;20930;-39
2022/09/03 11:10:29;;;;;;;0.75;0.38;;;26.30;89.20;;;;;;20641877;28;20034;-39
2022/09/03 11:20:34;;;;;;;7.03;0.52;;;26.80;85.20;;;;;;20650362;28;20908;-39
2022/09/03 11:30:48;;;;;;;0.95;0.40;;;27.30;84.50;;;;;;20634115;28;20121;-39
2022/09/03 11:41:01;;;;;;;0.95;0.30;;;27.60;85.00;;;;;;20637319;28;20046;-39
2022/09/03 11:51:03;;;;;;;0.68;0.32;;;28.10;84.70;;;;;;20661415;28;20046;-39
2022/09/03 12:01:12;;;;;;;1.40;0.30;;;28.40;84.80;;;;;;20665876;28;20038;-39
2022/09/03 12:11:57;;;;;;;0.70;0.40;;;28.70;84.40;;;;;;20654652;28;21145;-39
2022/09/03 12:22:00;;;;;;;0.60;0.30;;;29.00;83.30;;;;;;20644682;28;20303;-39
2022/09/03 12:32:07;;;;;;;0.60;0.30;;;28.90;83.10;;;;;;20663973;28;20050;-39
2022/09/03 12:42:15;;;;;;;0.80;0.55;;;29.50;79.80;;;;;;20650159;28;20551;-39
2022/09/03 12:52:40;;;;;;;4.25;0.50;;;29.30;82.00;;;;;;20648821;28;20839;-39
2022/09/03 13:02:59;;;;;;;1.50;0.60;;;29.90;79.50;;;;;;20638652;28;20042;-39
2022/09/03 13:13:04;;;;;;;0.80;0.40;;;29.50;80.80;;;;;;20653687;28;20065;-39
2022/09/03 13:23:48;;;;;;;0.60;0.30;;;29.60;81.40;;;;;;20625131;28;20670;-39
2022/09/03 13:34:04;;;;;;;1.02;0.40;;;30.40;80.90;;;;;;20627460;28;20902;-39
2022/09/03 13:44:21;;;;;;;2.37;0.93;;;31.40;77.90;;;;;;20637341;28;20045;-39
2022/09/03 13:54:38;;;;;;;1.17;0.45;;;31.70;78.20;;;;;;20638745;28;20811;-40
2022/09/03 14:04:43;;;;;;;1.13;0.40;;;31.50;79.00;;;;;;20652541;28;21883;-40
2022/09/03 14:15:02;;;;;;;0.60;0.30;;;30.90;76.80;;;;;;20632069;28;20120;-39
2022/09/03 14:25:16;;;;;;;2.03;0.40;;;30.00;75.20;;;;;;20652752;28;20072;-39
2022/09/03 14:35:27;;;;;;;1.17;0.47;;;29.70;78.30;;;;;;20652089;28;20722;-39
2022/09/03 14:45:56;;;;;;;0.82;0.50;;;29.60;77.40;;;;;;20663299;28;21157;-39
2022/09/03 14:56:37;;;;;;;1.17;0.57;;;29.00;77.30;;;;;;20686167;28;20433;-39
2022/09/03 15:07:06;;;;;;;0.52;0.38;;;28.70;77.50;;;;;;20660537;28;21782;-39
2022/09/03 15:17:36;;;;;;;2.25;0.60;;;28.50;78.90;;;;;;20685365;28;20460;-39
2022/09/03 15:27:59;;;;;;;0.63;0.40;;;28.20;78.50;;;;;;20643727;28;20251;-39
2022/09/03 15:38:09;;;;;;;0.85;0.45;;;28.00;80.00;;;;;;20671773;28;20085;-39
2022/09/03 15:48:29;;;;;;;0.73;0.38;;;27.80;79.60;;;;;;20672419;28;20320;-39
2022/09/03 15:58:34;;;;;;;1.08;0.50;;;27.50;80.80;;;;;;20660673;28;20668;-39
2022/09/03 16:09:01;;;;;;;1.48;0.55;;;27.50;80.00;;;;;;20648961;28;20042;-39
2022/09/03 16:19:16;;;;;;;1.10;0.50;;;27.30;81.70;;;;;;20649374;28;20034;-39
2022/09/03 16:29:24;;;;;;;1.23;0.47;;;27.10;81.20;;;;;;20665447;28;20868;-39
2022/09/03 16:40:12;;;;;;;0.98;0.52;;;26.90;80.90;;;;;;20651529;28;20866;-39
2022/09/03 16:50:20;;;;;;;1.00;0.40;;;26.70;81.30;;;;;;20649525;28;21741;-40
2022/09/03 17:00:24;;;;;;;0.93;0.40;;;26.50;82.40;;;;;;20667608;28;20686;-39
2022/09/03 17:11:03;;;;;;;3.08;1.02;;;26.40;82.30;;;;;;20660366;28;20678;-39
2022/09/03 17:21:33;;;;;;;2.72;0.50;;;26.20;82.30;;;;;;20665247;28;20734;-39
2022/09/03 17:32:14;;;;;;;1.45;0.50;;;26.00;82.90;;;;;;20672249;28;21799;-40
2022/09/03 17:42:28;;;;;;;1.02;0.50;;;25.80;85.50;;;;;;20678713;28;20928;-39
2022/09/03 17:52:37;;;;;;;1.30;0.70;;;25.50;90.70;;;;;;20674333;28;21881;-39
2022/09/03 18:03:23;;;;;;;1.25;0.57;;;25.10;91.70;;;;;;20677934;28;20794;-39
2022/09/03 18:13:57;;;;;;;1.38;0.63;;;24.80;93.40;;;;;;20543371;28;20597;-39
2022/09/03 20:10:34;;;;;;;1.50;0.80;;;20.80;99.90;;;;;;20658598;28;21878;-39
2022/09/03 20:21:09;;;;;;;2.15;1.15;;;20.70;99.90;;;;;;20655231;28;20104;-39
2022/09/03 20:31:28;;;;;;;1.58;1.00;;;20.60;99.90;;;;;;20667475;28;20104;-39
2022/09/03 20:41:44;;;;;;;1.48;0.70;;;20.40;99.90;;;;;;20620915;28;20907;-39
2022/09/03 20:51:57;;;;;;;1.67;0.80;;;20.30;99.90;;;;;;20641927;28;20422;-39
2022/09/03 21:02:17;;;;;;;1.40;0.90;;;20.10;99.90;;;;;;20656551;28;20038;-39
2022/09/03 21:12:43;;;;;;;5.93;1.63;;;20.00;99.90;;;;;;20662294;28;20828;-39
2022/09/03 21:23:04;;;;;;;1.77;1.02;;;19.70;99.90;;;;;;20644720;28;20906;-39
2022/09/03 21:33:15;;;;;;;1.55;0.77;;;19.50;99.90;;;;;;20641152;28;20081;-39
2022/09/03 21:43:31;;;;;;;1.70;0.80;;;19.40;99.90;;;;;;20645504;28;22160;-39
2022/09/03 21:53:48;;;;;;;2.45;1.23;;;19.30;99.90;;;;;;20635268;28;20233;-39
2022/09/03 22:03:49;;;;;;;1.95;0.90;;;19.10;99.90;;;;;;20646503;28;20449;-38
2022/09/03 22:13:57;;;;;;;2.83;1.60;;;19.00;99.90;;;;;;20662254;28;20171;-38
2022/09/03 22:24:23;;;;;;;2.47;1.20;;;18.90;99.90;;;;;;20647393;28;20123;-39
2022/09/03 22:35:01;;;;;;;2.03;1.10;;;18.60;99.90;;;;;;20641184;28;20899;-39
2022/09/03 22:45:28;;;;;;;2.47;1.30;;;18.50;99.90;;;;;;20638586;28;21766;-39
2022/09/03 22:55:29;;;;;;;2.97;1.30;;;18.40;99.90;;;;;;20634721;28;23380;-38
2022/09/03 23:05:52;;;;;;;3.45;1.58;;;18.30;99.90;;;;;;20646852;28;20046;-39
2022/09/03 23:16:01;;;;;;;3.05;1.40;;;18.20;99.90;;;;;;20637565;28;20080;-39
2022/09/03 23:26:25;;;;;;;2.53;1.70;;;18.10;99.90;;;;;;20657521;28;20053;-38
2022/09/03 23:36:41;;;;;;;4.05;1.80;;;18.10;99.90;;;;;;20629574;28;21900;-39
2022/09/03 23:47:12;;;;;;;3.45;2.22;;;18.00;99.90;;;;;;20643490;28;20577;-39
2022/09/03 23:57:16;;;;;;;2.13;1.17;;;17.90;99.90;;;;;;20621596;28;20924;-39
